»·PEaware :: N3891R KCNO-KPSP

N3891R :: KCNO-KPSP

FLIGHT INFORMATION

Flight Status: Arrived
Operator: Privately registered:
United States
More flights under this callsign
Pilot: Markus B. (22479)
Aircraft: BEECH AIRCRAFT BARON
(BE58)
More flights by this aircraft type
Origin: KCNO Chino
United States
Destination: KPSP Palm Springs Intl
United States
More flights between these airports :: More routes between these airports
Route: +PDZ V186 NIKKL V64 TRM
File this flight plan on PilotEdge
Remarks:
Altitude:
(Current/Filed)
9,000ft
Speed:
(Current/Filed)
170kts
Departed: 04-Aug-19 02:49 PM
Arrived: 04-Aug-19 03:41 PM
Distance/Time
Traveled:
57nm/0:52
Distance/Time
To Go:
Arrived

Flight Plot

Page will automatically refresh every two minutes.

Flight plan parsing failed; only flown route is shown


Map Options




Map Legend


Flown Route
Filed Route
Departure Airport
Arrival Airport
Navaid (VOR, NDB)
Fix

Horizontal Profiles

Position Reports

Time Latitude Longitude Heading Altitude Ground
Speed
04-Aug-19 14:25 33.977409 -117.636422 128 653ft 0kts
04-Aug-19 14:26 33.977409 -117.636422 128 653ft 0kts
04-Aug-19 14:27 33.977409 -117.636422 128 653ft 0kts
04-Aug-19 14:28 33.977409 -117.636422 128 653ft 0kts
04-Aug-19 14:29 33.977409 -117.636422 128 653ft 0kts
04-Aug-19 14:30 33.977409 -117.636422 128 653ft 0kts
04-Aug-19 14:31 33.977409 -117.636422 128 653ft 0kts
04-Aug-19 14:32 33.977409 -117.636422 128 653ft 0kts
04-Aug-19 14:33 33.977409 -117.636422 128 653ft 0kts
04-Aug-19 14:34 33.977409 -117.636422 128 653ft 0kts
04-Aug-19 14:35 33.977409 -117.636422 128 653ft 0kts
04-Aug-19 14:36 33.977409 -117.636422 128 653ft 0kts
04-Aug-19 14:37 33.977409 -117.636422 128 653ft 0kts
04-Aug-19 14:38 33.977409 -117.636422 128 653ft 0kts
04-Aug-19 14:39 33.977409 -117.636422 128 653ft 0kts
04-Aug-19 14:40 33.977409 -117.636422 128 653ft 0kts
04-Aug-19 14:41 33.977409 -117.636422 128 653ft 0kts
04-Aug-19 14:42 33.977409 -117.636422 128 653ft 0kts
04-Aug-19 14:43 33.977409 -117.636422 128 653ft 0kts
04-Aug-19 14:44 33.976932 -117.633152 90 653ft 20kts
04-Aug-19 14:45 33.976733 -117.630841 171 653ft 0kts
04-Aug-19 14:46 33.976733 -117.630841 171 653ft 0kts
04-Aug-19 14:47 33.976594 -117.630825 177 653ft 12kts
04-Aug-19 14:48 33.975499 -117.660503 271 1028ft 147kts
04-Aug-19 14:49 33.976803 -117.711124 271 2281ft 150kts
04-Aug-19 14:50 33.969573 -117.756892 202 3532ft 148kts
04-Aug-19 14:51 33.949567 -117.723878 92 4537ft 153kts
04-Aug-19 14:52 33.942971 -117.675572 101 5724ft 144kts
04-Aug-19 14:53 33.935492 -117.631340 101 7085ft 126kts
04-Aug-19 14:54 33.928580 -117.590930 101 8308ft 123kts
04-Aug-19 14:55 33.921316 -117.548613 101 9041ft 148kts
04-Aug-19 14:56 33.891337 -117.508741 143 9026ft 174kts
04-Aug-19 14:57 33.851333 -117.474234 145 9024ft 178kts
04-Aug-19 14:58 33.810634 -117.440022 145 9024ft 178kts
04-Aug-19 14:59 33.769833 -117.405864 145 9024ft 178kts
04-Aug-19 15:00 33.733698 -117.366944 106 9023ft 177kts
04-Aug-19 15:01 33.725940 -117.309357 97 9024ft 178kts
04-Aug-19 15:02 33.721119 -117.253349 96 9684ft 150kts
04-Aug-19 15:03 33.717144 -117.204709 96 10471ft 144kts
04-Aug-19 15:04 33.713186 -117.156186 96 11046ft 152kts
04-Aug-19 15:05 33.708711 -117.101637 96 11069ft 171kts
04-Aug-19 15:06 33.704039 -117.043810 95 11067ft 174kts
04-Aug-19 15:07 33.700334 -116.998583 96 11067ft 174kts
04-Aug-19 15:08 33.695500 -116.940394 96 11067ft 174kts
04-Aug-19 15:09 33.690636 -116.882152 96 11067ft 174kts
04-Aug-19 15:10 33.685721 -116.823706 96 11031ft 176kts
04-Aug-19 15:11 33.680794 -116.765387 96 11030ft 175kts
04-Aug-19 15:12 33.675850 -116.707224 96 11017ft 175kts
04-Aug-19 15:13 33.670855 -116.648785 96 11012ft 175kts
04-Aug-19 15:14 33.665848 -116.590528 96 11012ft 175kts
04-Aug-19 15:15 33.660813 -116.532297 96 11012ft 174kts
04-Aug-19 15:16 33.655788 -116.474467 96 10812ft 175kts
04-Aug-19 15:17 33.650486 -116.413783 95 10181ft 190kts
04-Aug-19 15:18 33.644840 -116.349766 96 9660ft 192kts
04-Aug-19 15:19 33.639216 -116.286249 96 9170ft 192kts
04-Aug-19 15:20 33.633672 -116.223640 96 8999ft 182kts
04-Aug-19 15:21 33.629034 -116.171021 96 8994ft 138kts
04-Aug-19 15:22 33.635468 -116.126452 75 8634ft 147kts
04-Aug-19 15:23 33.618980 -116.097083 211 7687ft 141kts
04-Aug-19 15:24 33.621211 -116.137702 290 6640ft 133kts
04-Aug-19 15:25 33.641535 -116.161543 61 5724ft 135kts
04-Aug-19 15:26 33.626744 -116.121845 110 5317ft 157kts
04-Aug-19 15:27 33.600491 -116.088765 206 4707ft 161kts
04-Aug-19 15:28 33.605689 -116.135166 301 4135ft 161kts
04-Aug-19 15:29 33.634852 -116.172402 307 3991ft 146kts
04-Aug-19 15:30 33.658500 -116.212270 305 3780ft 152kts
04-Aug-19 15:31 33.680244 -116.249533 305 3199ft 108kts
04-Aug-19 15:32 33.696086 -116.276637 305 2773ft 95kts
04-Aug-19 15:33 33.712863 -116.305314 305 2985ft 110kts
04-Aug-19 15:34 33.730629 -116.335736 305 2983ft 111kts
04-Aug-19 15:35 33.748426 -116.366206 305 2983ft 111kts
04-Aug-19 15:36 33.766143 -116.396860 304 2983ft 111kts
04-Aug-19 15:37 33.785389 -116.431435 291 2725ft 138kts
04-Aug-19 15:38 33.795060 -116.475585 295 1612ft 139kts
04-Aug-19 15:39 33.821697 -116.500621 324 507ft 102kts
04-Aug-19 15:40 33.833114 -116.511734 231 481ft 6kts
04-Aug-19 15:41 33.831386 -116.511367 145 481ft 11kts

Navigation Log

Ident Type
Flight plan parsing failed, navigation log unavailable